sensor_id;sensor_type;location;lat;lon;timestamp;temperature;humidity
16578;DHT22;8401;52.528;13.340;2024-02-15T00:00:28;9.70;99.90
16578;DHT22;8401;52.528;13.340;2024-02-15T00:02:54;9.70;99.90
16578;DHT22;8401;52.528;13.340;2024-02-15T00:05:19;9.60;99.90
16578;DHT22;8401;52.528;13.340;2024-02-15T00:07:45;9.70;99.90
16578;DHT22;8401;52.528;13.340;2024-02-15T00:10:13;9.70;99.90
16578;DHT22;8401;52.528;13.340;2024-02-15T00:12:40;9.70;99.90
16578;DHT22;8401;52.528;13.340;2024-02-15T00:15:05;9.70;99.90
16578;DHT22;8401;52.528;13.340;2024-02-15T00:17:31;9.70;99.90
16578;DHT22;8401;52.528;13.340;2024-02-15T00:19:57;9.80;99.90
16578;DHT22;8401;52.528;13.340;2024-02-15T00:22:23;9.90;99.90
16578;DHT22;8401;52.528;13.340;2024-02-15T00:24:49;9.90;99.90
16578;DHT22;8401;52.528;13.340;2024-02-15T00:27:16;9.80;99.90
16578;DHT22;8401;52.528;13.340;2024-02-15T00:29:41;9.90;99.90
16578;DHT22;8401;52.528;13.340;2024-02-15T00:32:08;9.80;99.90
16578;DHT22;8401;52.528;13.340;2024-02-15T00:34:36;9.80;99.90
16578;DHT22;8401;52.528;13.340;2024-02-15T00:37:04;9.80;99.90
16578;DHT22;8401;52.528;13.340;2024-02-15T00:39:30;9.70;99.90
16578;DHT22;8401;52.528;13.340;2024-02-15T00:41:58;9.70;99.90
16578;DHT22;8401;52.528;13.340;2024-02-15T00:44:27;9.80;99.90
16578;DHT22;8401;52.528;13.340;2024-02-15T00:46:52;9.80;99.90
16578;DHT22;8401;52.528;13.340;2024-02-15T00:49:21;9.80;99.90
16578;DHT22;8401;52.528;13.340;2024-02-15T00:51:48;9.80;99.90
16578;DHT22;8401;52.528;13.340;2024-02-15T00:54:14;9.80;99.90
16578;DHT22;8401;52.528;13.340;2024-02-15T00:56:40;9.90;99.90
16578;DHT22;8401;52.528;13.340;2024-02-15T00:59:06;9.90;99.90
16578;DHT22;8401;52.528;13.340;2024-02-15T01:01:31;9.90;99.90
16578;DHT22;8401;52.528;13.340;2024-02-15T01:03:57;10.00;99.90
16578;DHT22;8401;52.528;13.340;2024-02-15T01:06:23;9.90;99.90
16578;DHT22;8401;52.528;13.340;2024-02-15T01:08:49;9.90;99.90
16578;DHT22;8401;52.528;13.340;2024-02-15T01:11:15;9.80;99.90
16578;DHT22;8401;52.528;13.340;2024-02-15T01:13:40;9.70;99.90
16578;DHT22;8401;52.528;13.340;2024-02-15T01:16:07;9.80;99.90
16578;DHT22;8401;52.528;13.340;2024-02-15T01:18:32;9.80;99.90
16578;DHT22;8401;52.528;13.340;2024-02-15T01:20:58;9.80;99.90
16578;DHT22;8401;52.528;13.340;2024-02-15T01:23:24;9.80;99.90
16578;DHT22;8401;52.528;13.340;2024-02-15T01:25:52;9.80;99.90
16578;DHT22;8401;52.528;13.340;2024-02-15T01:28:18;9.80;99.90
16578;DHT22;8401;52.528;13.340;2024-02-15T01:30:43;9.80;99.90
16578;DHT22;8401;52.528;13.340;2024-02-15T01:33:11;9.90;99.90
16578;DHT22;8401;52.528;13.340;2024-02-15T01:35:37;9.90;99.90
16578;DHT22;8401;52.528;13.340;2024-02-15T01:38:03;9.90;99.90
16578;DHT22;8401;52.528;13.340;2024-02-15T01:40:29;9.80;99.90
16578;DHT22;8401;52.528;13.340;2024-02-15T01:42:54;9.80;99.90
16578;DHT22;8401;52.528;13.340;2024-02-15T01:45:21;9.80;99.90
16578;DHT22;8401;52.528;13.340;2024-02-15T01:47:48;9.80;99.90
16578;DHT22;8401;52.528;13.340;2024-02-15T01:50:14;9.80;99.90
16578;DHT22;8401;52.528;13.340;2024-02-15T01:52:43;9.90;99.90
16578;DHT22;8401;52.528;13.340;2024-02-15T01:55:13;9.80;99.90
16578;DHT22;8401;52.528;13.340;2024-02-15T01:57:40;9.80;99.90
16578;DHT22;8401;52.528;13.340;2024-02-15T02:00:09;9.70;99.90
16578;DHT22;8401;52.528;13.340;2024-02-15T02:02:38;9.80;99.90
16578;DHT22;8401;52.528;13.340;2024-02-15T02:05:05;9.70;99.90
16578;DHT22;8401;52.528;13.340;2024-02-15T02:07:31;9.70;99.90
16578;DHT22;8401;52.528;13.340;2024-02-15T02:09:56;9.70;99.90
16578;DHT22;8401;52.528;13.340;2024-02-15T02:12:22;9.80;99.90
16578;DHT22;8401;52.528;13.340;2024-02-15T02:14:48;9.80;99.90
16578;DHT22;8401;52.528;13.340;2024-02-15T02:17:15;9.80;99.90
16578;DHT22;8401;52.528;13.340;2024-02-15T02:19:41;9.80;99.90
16578;DHT22;8401;52.528;13.340;2024-02-15T02:22:09;9.80;99.90
16578;DHT22;8401;52.528;13.340;2024-02-15T02:24:40;9.90;99.90
16578;DHT22;8401;52.528;13.340;2024-02-15T02:27:11;9.90;99.90
16578;DHT22;8401;52.528;13.340;2024-02-15T02:29:42;9.80;99.90
16578;DHT22;8401;52.528;13.340;2024-02-15T02:32:10;9.80;99.90
16578;DHT22;8401;52.528;13.340;2024-02-15T02:34:36;9.80;99.90
16578;DHT22;8401;52.528;13.340;2024-02-15T02:37:02;9.80;99.90
16578;DHT22;8401;52.528;13.340;2024-02-15T02:39:31;9.90;99.90
16578;DHT22;8401;52.528;13.340;2024-02-15T02:41:57;9.90;99.90
16578;DHT22;8401;52.528;13.340;2024-02-15T02:44:23;9.90;99.90
16578;DHT22;8401;52.528;13.340;2024-02-15T02:46:49;9.90;99.90
16578;DHT22;8401;52.528;13.340;2024-02-15T02:49:14;9.90;99.90
16578;DHT22;8401;52.528;13.340;2024-02-15T02:51:40;9.90;99.90
16578;DHT22;8401;52.528;13.340;2024-02-15T02:54:05;10.00;99.90
16578;DHT22;8401;52.528;13.340;2024-02-15T02:56:32;9.90;99.90
16578;DHT22;8401;52.528;13.340;2024-02-15T02:58:58;9.80;99.90
16578;DHT22;8401;52.528;13.340;2024-02-15T03:01:24;9.90;99.90
16578;DHT22;8401;52.528;13.340;2024-02-15T03:03:53;10.00;99.90
16578;DHT22;8401;52.528;13.340;2024-02-15T03:06:24;10.00;99.90
16578;DHT22;8401;52.528;13.340;2024-02-15T03:08:50;10.00;99.90
16578;DHT22;8401;52.528;13.340;2024-02-15T03:11:20;10.10;99.90
16578;DHT22;8401;52.528;13.340;2024-02-15T03:13:46;10.00;99.90
16578;DHT22;8401;52.528;13.340;2024-02-15T03:16:13;9.90;99.90
16578;DHT22;8401;52.528;13.340;2024-02-15T03:18:39;9.90;99.90
16578;DHT22;8401;52.528;13.340;2024-02-15T03:21:06;9.90;99.90
16578;DHT22;8401;52.528;13.340;2024-02-15T03:23:32;10.00;99.90
16578;DHT22;8401;52.528;13.340;2024-02-15T03:25:58;10.10;99.90
16578;DHT22;8401;52.528;13.340;2024-02-15T03:28:24;10.10;99.90
16578;DHT22;8401;52.528;13.340;2024-02-15T03:30:50;10.10;99.90
16578;DHT22;8401;52.528;13.340;2024-02-15T03:33:15;10.10;99.90
16578;DHT22;8401;52.528;13.340;2024-02-15T03:35:41;10.00;99.90
16578;DHT22;8401;52.528;13.340;2024-02-15T03:38:07;10.00;99.90
16578;DHT22;8401;52.528;13.340;2024-02-15T03:40:32;10.00;99.90
16578;DHT22;8401;52.528;13.340;2024-02-15T03:42:59;9.90;99.90
16578;DHT22;8401;52.528;13.340;2024-02-15T03:45:24;9.90;99.90
16578;DHT22;8401;52.528;13.340;2024-02-15T03:47:51;9.90;99.90
16578;DHT22;8401;52.528;13.340;2024-02-15T03:50:18;9.90;99.90
16578;DHT22;8401;52.528;13.340;2024-02-15T03:52:46;10.00;99.90
16578;DHT22;8401;52.528;13.340;2024-02-15T03:55:11;10.00;99.90
16578;DHT22;8401;52.528;13.340;2024-02-15T03:57:38;9.90;99.90
16578;DHT22;8401;52.528;13.340;2024-02-15T04:00:06;9.90;99.90
16578;DHT22;8401;52.528;13.340;2024-02-15T04:02:33;9.90;99.90
16578;DHT22;8401;52.528;13.340;2024-02-15T04:05:00;9.90;99.90
16578;DHT22;8401;52.528;13.340;2024-02-15T04:07:26;9.90;99.90
16578;DHT22;8401;52.528;13.340;2024-02-15T04:09:55;9.90;99.90
16578;DHT22;8401;52.528;13.340;2024-02-15T04:12:21;9.90;99.90
16578;DHT22;8401;52.528;13.340;2024-02-15T04:14:47;9.90;99.90
16578;DHT22;8401;52.528;13.340;2024-02-15T04:17:13;10.00;99.90
16578;DHT22;8401;52.528;13.340;2024-02-15T04:19:39;10.00;99.90
16578;DHT22;8401;52.528;13.340;2024-02-15T04:22:05;10.00;99.90
16578;DHT22;8401;52.528;13.340;2024-02-15T04:24:36;10.00;99.90
16578;DHT22;8401;52.528;13.340;2024-02-15T04:27:06;10.10;99.90
16578;DHT22;8401;52.528;13.340;2024-02-15T04:29:36;10.20;99.90
16578;DHT22;8401;52.528;13.340;2024-02-15T04:32:03;10.20;99.90
16578;DHT22;8401;52.528;13.340;2024-02-15T04:34:29;10.10;99.90
16578;DHT22;8401;52.528;13.340;2024-02-15T04:36:59;10.10;99.90
16578;DHT22;8401;52.528;13.340;2024-02-15T04:39:25;10.20;99.90
16578;DHT22;8401;52.528;13.340;2024-02-15T04:41:53;10.30;99.90
16578;DHT22;8401;52.528;13.340;2024-02-15T04:44:19;10.20;99.90
16578;DHT22;8401;52.528;13.340;2024-02-15T04:46:52;10.20;99.90
16578;DHT22;8401;52.528;13.340;2024-02-15T04:49:19;10.30;99.90
16578;DHT22;8401;52.528;13.340;2024-02-15T04:51:45;10.40;99.90
16578;DHT22;8401;52.528;13.340;2024-02-15T04:54:11;10.40;99.90
16578;DHT22;8401;52.528;13.340;2024-02-15T04:56:40;10.30;99.90
16578;DHT22;8401;52.528;13.340;2024-02-15T04:59:09;10.20;99.90
16578;DHT22;8401;52.528;13.340;2024-02-15T05:01:41;10.20;99.90
16578;DHT22;8401;52.528;13.340;2024-02-15T05:04:11;10.20;99.90
16578;DHT22;8401;52.528;13.340;2024-02-15T05:06:37;10.10;99.90
16578;DHT22;8401;52.528;13.340;2024-02-15T05:09:04;10.10;99.90
16578;DHT22;8401;52.528;13.340;2024-02-15T05:11:39;10.10;99.90
16578;DHT22;8401;52.528;13.340;2024-02-15T05:14:13;10.10;99.90
16578;DHT22;8401;52.528;13.340;2024-02-15T05:16:47;10.10;99.90
16578;DHT22;8401;52.528;13.340;2024-02-15T05:19:15;10.20;99.90
16578;DHT22;8401;52.528;13.340;2024-02-15T05:21:42;10.20;99.90
16578;DHT22;8401;52.528;13.340;2024-02-15T05:24:16;10.20;99.90
16578;DHT22;8401;52.528;13.340;2024-02-15T05:26:44;10.20;99.90
16578;DHT22;8401;52.528;13.340;2024-02-15T05:29:12;10.10;99.90
16578;DHT22;8401;52.528;13.340;2024-02-15T05:31:38;10.10;99.90
16578;DHT22;8401;52.528;13.340;2024-02-15T05:34:05;10.10;99.90
16578;DHT22;8401;52.528;13.340;2024-02-15T05:36:33;10.10;99.90
16578;DHT22;8401;52.528;13.340;2024-02-15T05:38:59;10.20;99.90
16578;DHT22;8401;52.528;13.340;2024-02-15T05:41:25;10.30;99.90
16578;DHT22;8401;52.528;13.340;2024-02-15T05:43:51;10.20;99.90
16578;DHT22;8401;52.528;13.340;2024-02-15T05:46:19;10.20;99.90
16578;DHT22;8401;52.528;13.340;2024-02-15T05:48:48;10.20;99.90
16578;DHT22;8401;52.528;13.340;2024-02-15T05:51:14;10.20;99.90
16578;DHT22;8401;52.528;13.340;2024-02-15T05:53:40;10.20;99.90
16578;DHT22;8401;52.528;13.340;2024-02-15T05:56:07;10.20;99.90
16578;DHT22;8401;52.528;13.340;2024-02-15T05:58:34;10.20;99.90
16578;DHT22;8401;52.528;13.340;2024-02-15T06:01:01;10.30;99.90
16578;DHT22;8401;52.528;13.340;2024-02-15T06:03:31;10.30;99.90
16578;DHT22;8401;52.528;13.340;2024-02-15T06:06:00;10.20;99.90
16578;DHT22;8401;52.528;13.340;2024-02-15T06:08:30;10.20;99.90
16578;DHT22;8401;52.528;13.340;2024-02-15T06:10:56;10.20;99.90
16578;DHT22;8401;52.528;13.340;2024-02-15T06:13:22;10.30;99.90
16578;DHT22;8401;52.528;13.340;2024-02-15T06:15:48;10.30;99.90
16578;DHT22;8401;52.528;13.340;2024-02-15T06:18:22;10.30;99.90
16578;DHT22;8401;52.528;13.340;2024-02-15T06:20:52;10.30;99.90
16578;DHT22;8401;52.528;13.340;2024-02-15T06:23:19;10.30;99.90
16578;DHT22;8401;52.528;13.340;2024-02-15T06:25:48;10.40;99.90
16578;DHT22;8401;52.528;13.340;2024-02-15T06:28:16;10.40;99.90
16578;DHT22;8401;52.528;13.340;2024-02-15T06:31:09;10.40;99.90
16578;DHT22;8401;52.528;13.340;2024-02-15T06:33:53;10.30;99.90
16578;DHT22;8401;52.528;13.340;2024-02-15T06:36:46;10.40;99.90
16578;DHT22;8401;52.528;13.340;2024-02-15T06:39:31;10.40;99.90
16578;DHT22;8401;52.528;13.340;2024-02-15T06:42:16;10.40;99.90
16578;DHT22;8401;52.528;13.340;2024-02-15T06:44:44;10.60;99.90
16578;DHT22;8401;52.528;13.340;2024-02-15T06:47:10;10.50;99.90
16578;DHT22;8401;52.528;13.340;2024-02-15T06:49:37;10.50;99.90
16578;DHT22;8401;52.528;13.340;2024-02-15T06:52:05;10.50;99.90
16578;DHT22;8401;52.528;13.340;2024-02-15T06:54:33;10.50;99.90
16578;DHT22;8401;52.528;13.340;2024-02-15T06:56:59;10.60;99.90
16578;DHT22;8401;52.528;13.340;2024-02-15T06:59:24;10.60;99.90
16578;DHT22;8401;52.528;13.340;2024-02-15T07:01:58;10.60;99.90
16578;DHT22;8401;52.528;13.340;2024-02-15T07:04:23;10.50;99.90
16578;DHT22;8401;52.528;13.340;2024-02-15T07:06:51;10.60;99.90
16578;DHT22;8401;52.528;13.340;2024-02-15T07:09:18;10.60;99.90
16578;DHT22;8401;52.528;13.340;2024-02-15T07:11:45;10.60;99.90
16578;DHT22;8401;52.528;13.340;2024-02-15T07:14:14;10.60;99.90
16578;DHT22;8401;52.528;13.340;2024-02-15T07:16:44;10.70;99.90
16578;DHT22;8401;52.528;13.340;2024-02-15T07:19:10;10.60;99.90
16578;DHT22;8401;52.528;13.340;2024-02-15T07:21:36;10.70;99.90
16578;DHT22;8401;52.528;13.340;2024-02-15T07:24:03;10.80;99.90
16578;DHT22;8401;52.528;13.340;2024-02-15T07:26:30;10.70;99.90
16578;DHT22;8401;52.528;13.340;2024-02-15T07:28:56;10.80;99.90
16578;DHT22;8401;52.528;13.340;2024-02-15T07:31:22;10.80;99.90
16578;DHT22;8401;52.528;13.340;2024-02-15T07:33:52;10.80;99.90
16578;DHT22;8401;52.528;13.340;2024-02-15T07:36:22;10.90;99.90
16578;DHT22;8401;52.528;13.340;2024-02-15T07:38:52;10.90;99.90
16578;DHT22;8401;52.528;13.340;2024-02-15T07:41:20;10.90;99.90
16578;DHT22;8401;52.528;13.340;2024-02-15T07:43:48;11.00;99.90
16578;DHT22;8401;52.528;13.340;2024-02-15T07:46:14;11.00;99.90
16578;DHT22;8401;52.528;13.340;2024-02-15T07:48:45;10.90;99.90
16578;DHT22;8401;52.528;13.340;2024-02-15T07:51:12;10.90;99.90
16578;DHT22;8401;52.528;13.340;2024-02-15T07:53:39;11.00;99.90
16578;DHT22;8401;52.528;13.340;2024-02-15T07:56:06;11.20;99.90
16578;DHT22;8401;52.528;13.340;2024-02-15T07:58:31;11.10;99.90
16578;DHT22;8401;52.528;13.340;2024-02-15T08:00:57;11.10;99.90
16578;DHT22;8401;52.528;13.340;2024-02-15T08:03:25;11.20;99.90
16578;DHT22;8401;52.528;13.340;2024-02-15T08:05:52;11.30;99.90
16578;DHT22;8401;52.528;13.340;2024-02-15T08:08:17;11.30;99.90
16578;DHT22;8401;52.528;13.340;2024-02-15T08:10:43;11.20;99.90
16578;DHT22;8401;52.528;13.340;2024-02-15T08:13:10;11.30;99.90
16578;DHT22;8401;52.528;13.340;2024-02-15T08:15:36;11.30;99.90
16578;DHT22;8401;52.528;13.340;2024-02-15T08:18:01;11.20;99.90
16578;DHT22;8401;52.528;13.340;2024-02-15T08:20:30;11.20;99.90
16578;DHT22;8401;52.528;13.340;2024-02-15T08:22:57;11.40;99.90
16578;DHT22;8401;52.528;13.340;2024-02-15T08:25:24;11.40;99.90
16578;DHT22;8401;52.528;13.340;2024-02-15T08:27:50;11.30;99.90
16578;DHT22;8401;52.528;13.340;2024-02-15T08:30:16;11.40;99.90
16578;DHT22;8401;52.528;13.340;2024-02-15T08:32:43;11.40;99.90
16578;DHT22;8401;52.528;13.340;2024-02-15T08:35:09;11.20;99.90
16578;DHT22;8401;52.528;13.340;2024-02-15T08:37:39;11.20;99.90
16578;DHT22;8401;52.528;13.340;2024-02-15T08:40:07;11.20;99.90
16578;DHT22;8401;52.528;13.340;2024-02-15T08:42:42;11.20;99.90
16578;DHT22;8401;52.528;13.340;2024-02-15T08:45:08;11.20;99.90
16578;DHT22;8401;52.528;13.340;2024-02-15T08:47:38;11.30;99.90
16578;DHT22;8401;52.528;13.340;2024-02-15T08:50:05;11.30;99.90
16578;DHT22;8401;52.528;13.340;2024-02-15T08:52:31;11.40;99.90
16578;DHT22;8401;52.528;13.340;2024-02-15T08:54:56;11.30;99.90
16578;DHT22;8401;52.528;13.340;2024-02-15T08:57:24;11.40;99.90
16578;DHT22;8401;52.528;13.340;2024-02-15T08:59:51;11.50;99.90
16578;DHT22;8401;52.528;13.340;2024-02-15T09:02:18;11.50;99.90
16578;DHT22;8401;52.528;13.340;2024-02-15T09:04:43;11.60;99.90
16578;DHT22;8401;52.528;13.340;2024-02-15T09:07:09;11.70;99.90
16578;DHT22;8401;52.528;13.340;2024-02-15T09:09:35;12.00;99.90
16578;DHT22;8401;52.528;13.340;2024-02-15T09:12:05;11.90;99.90
16578;DHT22;8401;52.528;13.340;2024-02-15T09:14:34;11.90;99.90
16578;DHT22;8401;52.528;13.340;2024-02-15T09:17:02;11.70;99.90
16578;DHT22;8401;52.528;13.340;2024-02-15T09:19:36;11.90;99.90
16578;DHT22;8401;52.528;13.340;2024-02-15T09:22:02;12.00;99.90
16578;DHT22;8401;52.528;13.340;2024-02-15T09:24:32;11.90;99.90
16578;DHT22;8401;52.528;13.340;2024-02-15T09:26:59;12.00;99.90
16578;DHT22;8401;52.528;13.340;2024-02-15T09:29:27;12.00;99.90
16578;DHT22;8401;52.528;13.340;2024-02-15T09:31:55;12.00;99.90
16578;DHT22;8401;52.528;13.340;2024-02-15T09:34:21;11.80;99.90
16578;DHT22;8401;52.528;13.340;2024-02-15T09:36:47;11.80;99.90
16578;DHT22;8401;52.528;13.340;2024-02-15T09:39:12;11.90;99.90
16578;DHT22;8401;52.528;13.340;2024-02-15T09:41:39;11.90;99.90
16578;DHT22;8401;52.528;13.340;2024-02-15T09:44:05;11.90;99.90
16578;DHT22;8401;52.528;13.340;2024-02-15T09:46:35;11.80;99.90
16578;DHT22;8401;52.528;13.340;2024-02-15T09:49:01;11.90;99.90
16578;DHT22;8401;52.528;13.340;2024-02-15T09:51:29;11.80;99.90
16578;DHT22;8401;52.528;13.340;2024-02-15T09:53:58;11.70;99.90
16578;DHT22;8401;52.528;13.340;2024-02-15T09:56:25;11.70;99.90
16578;DHT22;8401;52.528;13.340;2024-02-15T09:58:51;11.80;99.90
16578;DHT22;8401;52.528;13.340;2024-02-15T10:01:19;11.80;99.90
16578;DHT22;8401;52.528;13.340;2024-02-15T10:03:51;11.90;99.90
16578;DHT22;8401;52.528;13.340;2024-02-15T10:06:18;12.10;99.90
16578;DHT22;8401;52.528;13.340;2024-02-15T10:08:44;12.20;99.90
16578;DHT22;8401;52.528;13.340;2024-02-15T10:11:12;12.30;99.90
16578;DHT22;8401;52.528;13.340;2024-02-15T10:13:38;12.40;99.90
16578;DHT22;8401;52.528;13.340;2024-02-15T10:16:18;12.40;99.90
16578;DHT22;8401;52.528;13.340;2024-02-15T10:18:44;12.40;99.90
16578;DHT22;8401;52.528;13.340;2024-02-15T10:21:10;12.40;99.90
16578;DHT22;8401;52.528;13.340;2024-02-15T10:24:02;12.50;99.90
16578;DHT22;8401;52.528;13.340;2024-02-15T10:26:30;12.60;99.90
16578;DHT22;8401;52.528;13.340;2024-02-15T10:29:11;12.70;99.90
16578;DHT22;8401;52.528;13.340;2024-02-15T10:31:51;12.60;99.90
16578;DHT22;8401;52.528;13.340;2024-02-15T10:34:17;12.80;99.90
16578;DHT22;8401;52.528;13.340;2024-02-15T10:36:45;12.70;99.90
16578;DHT22;8401;52.528;13.340;2024-02-15T10:39:15;12.70;99.90
16578;DHT22;8401;52.528;13.340;2024-02-15T10:41:51;12.70;99.90
16578;DHT22;8401;52.528;13.340;2024-02-15T10:44:22;12.70;99.90
16578;DHT22;8401;52.528;13.340;2024-02-15T10:46:52;12.70;99.90
16578;DHT22;8401;52.528;13.340;2024-02-15T10:49:25;12.80;99.90
16578;DHT22;8401;52.528;13.340;2024-02-15T10:51:55;12.70;99.90
16578;DHT22;8401;52.528;13.340;2024-02-15T10:54:46;12.70;99.90
16578;DHT22;8401;52.528;13.340;2024-02-15T10:57:12;12.80;99.90
16578;DHT22;8401;52.528;13.340;2024-02-15T10:59:48;12.80;99.90
16578;DHT22;8401;52.528;13.340;2024-02-15T11:02:30;12.80;99.90
16578;DHT22;8401;52.528;13.340;2024-02-15T11:05:01;13.10;99.90
16578;DHT22;8401;52.528;13.340;2024-02-15T11:07:31;13.20;99.90
16578;DHT22;8401;52.528;13.340;2024-02-15T11:09:57;13.20;99.90
16578;DHT22;8401;52.528;13.340;2024-02-15T11:12:24;13.30;99.90
16578;DHT22;8401;52.528;13.340;2024-02-15T11:14:51;13.40;99.90
16578;DHT22;8401;52.528;13.340;2024-02-15T11:20:08;13.40;99.90
16578;DHT22;8401;52.528;13.340;2024-02-15T11:22:36;13.40;99.90
16578;DHT22;8401;52.528;13.340;2024-02-15T11:25:03;13.40;99.90
16578;DHT22;8401;52.528;13.340;2024-02-15T11:27:35;13.40;99.90
16578;DHT22;8401;52.528;13.340;2024-02-15T11:30:03;13.30;99.90
16578;DHT22;8401;52.528;13.340;2024-02-15T11:32:47;13.30;99.90
16578;DHT22;8401;52.528;13.340;2024-02-15T11:40:25;13.30;99.90
16578;DHT22;8401;52.528;13.340;2024-02-15T11:42:59;13.20;99.90
16578;DHT22;8401;52.528;13.340;2024-02-15T11:45:29;13.30;99.90
16578;DHT22;8401;52.528;13.340;2024-02-15T11:48:13;13.10;99.90
16578;DHT22;8401;52.528;13.340;2024-02-15T11:50:39;13.10;99.90
16578;DHT22;8401;52.528;13.340;2024-02-15T11:53:06;13.10;99.90
16578;DHT22;8401;52.528;13.340;2024-02-15T11:55:35;13.10;99.90
16578;DHT22;8401;52.528;13.340;2024-02-15T11:58:04;13.00;99.90
16578;DHT22;8401;52.528;13.340;2024-02-15T12:00:42;13.00;99.90
16578;DHT22;8401;52.528;13.340;2024-02-15T12:03:27;13.10;99.90
16578;DHT22;8401;52.528;13.340;2024-02-15T12:06:11;13.10;99.90
16578;DHT22;8401;52.528;13.340;2024-02-15T12:08:55;13.10;99.90
16578;DHT22;8401;52.528;13.340;2024-02-15T12:11:40;13.00;99.90
16578;DHT22;8401;52.528;13.340;2024-02-15T12:14:24;13.10;99.90
16578;DHT22;8401;52.528;13.340;2024-02-15T12:17:11;13.10;99.90
16578;DHT22;8401;52.528;13.340;2024-02-15T12:19:56;13.30;99.90
16578;DHT22;8401;52.528;13.340;2024-02-15T12:22:35;13.20;99.90
16578;DHT22;8401;52.528;13.340;2024-02-15T12:25:06;13.20;99.90
16578;DHT22;8401;52.528;13.340;2024-02-15T12:27:42;13.30;99.90
16578;DHT22;8401;52.528;13.340;2024-02-15T12:30:14;13.40;99.90
16578;DHT22;8401;52.528;13.340;2024-02-15T12:32:40;13.60;99.90
16578;DHT22;8401;52.528;13.340;2024-02-15T12:35:16;13.60;99.90
16578;DHT22;8401;52.528;13.340;2024-02-15T12:38:03;13.50;99.90
16578;DHT22;8401;52.528;13.340;2024-02-15T12:40:39;13.60;99.90
16578;DHT22;8401;52.528;13.340;2024-02-15T12:43:06;13.60;99.90
16578;DHT22;8401;52.528;13.340;2024-02-15T12:45:44;13.80;99.90
16578;DHT22;8401;52.528;13.340;2024-02-15T12:48:10;13.80;99.90
16578;DHT22;8401;52.528;13.340;2024-02-15T12:50:36;13.80;99.90
16578;DHT22;8401;52.528;13.340;2024-02-15T12:53:02;13.90;99.90
16578;DHT22;8401;52.528;13.340;2024-02-15T12:55:34;13.90;99.90
16578;DHT22;8401;52.528;13.340;2024-02-15T12:58:01;14.00;99.90
16578;DHT22;8401;52.528;13.340;2024-02-15T13:00:30;13.90;99.90
16578;DHT22;8401;52.528;13.340;2024-02-15T13:03:03;14.00;99.90
16578;DHT22;8401;52.528;13.340;2024-02-15T13:05:30;14.00;99.90
16578;DHT22;8401;52.528;13.340;2024-02-15T13:07:57;14.10;99.90
16578;DHT22;8401;52.528;13.340;2024-02-15T13:10:36;14.00;99.90
16578;DHT22;8401;52.528;13.340;2024-02-15T13:13:02;13.90;99.90
16578;DHT22;8401;52.528;13.340;2024-02-15T13:15:28;14.20;99.90
16578;DHT22;8401;52.528;13.340;2024-02-15T13:17:58;14.20;99.90
16578;DHT22;8401;52.528;13.340;2024-02-15T13:20:24;14.00;99.90
16578;DHT22;8401;52.528;13.340;2024-02-15T13:23:01;14.10;99.90
16578;DHT22;8401;52.528;13.340;2024-02-15T13:25:36;13.90;99.90
16578;DHT22;8401;52.528;13.340;2024-02-15T13:28:04;13.80;99.90
16578;DHT22;8401;52.528;13.340;2024-02-15T13:30:30;13.90;99.90
16578;DHT22;8401;52.528;13.340;2024-02-15T13:32:55;14.00;99.90
16578;DHT22;8401;52.528;13.340;2024-02-15T13:35:21;14.10;99.90
16578;DHT22;8401;52.528;13.340;2024-02-15T13:37:49;14.20;99.90
16578;DHT22;8401;52.528;13.340;2024-02-15T13:40:15;14.30;99.90
16578;DHT22;8401;52.528;13.340;2024-02-15T13:42:44;14.40;99.90
16578;DHT22;8401;52.528;13.340;2024-02-15T13:45:19;14.40;99.90
16578;DHT22;8401;52.528;13.340;2024-02-15T13:47:46;14.40;99.90
16578;DHT22;8401;52.528;13.340;2024-02-15T13:50:12;14.30;99.90
16578;DHT22;8401;52.528;13.340;2024-02-15T13:52:42;14.20;99.90
16578;DHT22;8401;52.528;13.340;2024-02-15T13:55:14;14.10;99.90
16578;DHT22;8401;52.528;13.340;2024-02-15T13:57:41;14.20;99.90
16578;DHT22;8401;52.528;13.340;2024-02-15T14:00:11;14.10;99.90
16578;DHT22;8401;52.528;13.340;2024-02-15T14:02:53;14.20;99.90
16578;DHT22;8401;52.528;13.340;2024-02-15T14:05:20;14.20;99.90
16578;DHT22;8401;52.528;13.340;2024-02-15T14:07:50;14.20;99.90
16578;DHT22;8401;52.528;13.340;2024-02-15T14:10:17;14.40;99.90
16578;DHT22;8401;52.528;13.340;2024-02-15T14:12:47;14.50;99.90
16578;DHT22;8401;52.528;13.340;2024-02-15T14:15:16;14.60;99.90
16578;DHT22;8401;52.528;13.340;2024-02-15T14:17:45;14.60;99.90
16578;DHT22;8401;52.528;13.340;2024-02-15T14:20:11;14.40;99.90
16578;DHT22;8401;52.528;13.340;2024-02-15T14:22:40;14.20;99.90
16578;DHT22;8401;52.528;13.340;2024-02-15T14:25:07;14.10;99.90
16578;DHT22;8401;52.528;13.340;2024-02-15T14:27:33;14.10;99.90
16578;DHT22;8401;52.528;13.340;2024-02-15T14:29:59;14.10;99.90
16578;DHT22;8401;52.528;13.340;2024-02-15T14:32:45;14.10;99.90
16578;DHT22;8401;52.528;13.340;2024-02-15T14:35:35;14.20;99.90
16578;DHT22;8401;52.528;13.340;2024-02-15T14:38:19;14.20;99.90
16578;DHT22;8401;52.528;13.340;2024-02-15T14:40:47;14.30;99.90
16578;DHT22;8401;52.528;13.340;2024-02-15T14:43:19;14.20;99.90
16578;DHT22;8401;52.528;13.340;2024-02-15T14:45:47;14.30;99.90
16578;DHT22;8401;52.528;13.340;2024-02-15T14:48:13;14.20;99.90
16578;DHT22;8401;52.528;13.340;2024-02-15T14:50:40;14.30;99.90
16578;DHT22;8401;52.528;13.340;2024-02-15T14:53:05;14.30;99.90
16578;DHT22;8401;52.528;13.340;2024-02-15T14:55:33;14.30;99.90
16578;DHT22;8401;52.528;13.340;2024-02-15T14:57:59;14.30;99.90
16578;DHT22;8401;52.528;13.340;2024-02-15T15:00:25;14.20;99.90
16578;DHT22;8401;52.528;13.340;2024-02-15T15:02:52;14.20;99.90
16578;DHT22;8401;52.528;13.340;2024-02-15T15:05:18;14.00;99.90
16578;DHT22;8401;52.528;13.340;2024-02-15T15:08:03;14.10;99.90
16578;DHT22;8401;52.528;13.340;2024-02-15T15:10:47;14.10;99.90
16578;DHT22;8401;52.528;13.340;2024-02-15T15:13:32;14.10;99.90
16578;DHT22;8401;52.528;13.340;2024-02-15T15:15:59;14.20;99.90
16578;DHT22;8401;52.528;13.340;2024-02-15T15:18:24;14.10;99.90
16578;DHT22;8401;52.528;13.340;2024-02-15T15:20:50;14.10;99.90
16578;DHT22;8401;52.528;13.340;2024-02-15T15:23:16;14.00;99.90
16578;DHT22;8401;52.528;13.340;2024-02-15T15:25:42;14.00;99.90
16578;DHT22;8401;52.528;13.340;2024-02-15T15:28:08;14.00;99.90
16578;DHT22;8401;52.528;13.340;2024-02-15T15:30:34;13.90;99.90
16578;DHT22;8401;52.528;13.340;2024-02-15T15:33:00;13.90;99.90
16578;DHT22;8401;52.528;13.340;2024-02-15T15:35:28;13.90;99.90
16578;DHT22;8401;52.528;13.340;2024-02-15T15:37:56;13.90;99.90
16578;DHT22;8401;52.528;13.340;2024-02-15T15:40:22;13.90;99.90
16578;DHT22;8401;52.528;13.340;2024-02-15T15:42:48;13.70;99.90
16578;DHT22;8401;52.528;13.340;2024-02-15T15:45:14;13.80;99.90
16578;DHT22;8401;52.528;13.340;2024-02-15T15:47:41;13.80;99.90
16578;DHT22;8401;52.528;13.340;2024-02-15T15:50:10;13.70;99.90
16578;DHT22;8401;52.528;13.340;2024-02-15T15:52:37;13.70;99.90